createdAt,value
2023-05-20T00:02:11.000Z,2.65
2023-05-20T00:04:37.574Z,2.28
2023-05-20T00:07:04.301Z,2.65
2023-05-20T00:09:30.738Z,2.70
2023-05-20T00:11:57.243Z,2.67
2023-05-20T00:14:23.764Z,2.40
2023-05-20T00:16:50.508Z,2.72
2023-05-20T00:19:17.101Z,2.60
2023-05-20T00:21:43.815Z,2.72
2023-05-20T00:24:10.869Z,2.35
2023-05-20T00:26:37.421Z,2.40
2023-05-20T00:29:03.960Z,2.53
2023-05-20T00:31:30.597Z,2.20
2023-05-20T00:33:57.385Z,2.72
2023-05-20T00:36:23.965Z,2.95
2023-05-20T00:38:50.488Z,2.60
2023-05-20T00:41:17.129Z,2.72
2023-05-20T00:43:43.676Z,2.17
2023-05-20T00:46:10.669Z,2.45
2023-05-20T00:48:42.492Z,2.35
2023-05-20T00:51:10.352Z,2.90
2023-05-20T00:53:37.055Z,2.72
2023-05-20T00:56:04.757Z,2.78
2023-05-20T00:58:32.165Z,2.70
2023-05-20T01:00:58.702Z,2.70
2023-05-20T01:03:25.651Z,2.67
2023-05-20T01:05:52.436Z,2.75
2023-05-20T01:08:19.151Z,2.42
2023-05-20T01:10:47.708Z,3.15
2023-05-20T01:13:17.376Z,3.03
2023-05-20T01:15:48.329Z,2.50
2023-05-20T01:18:18.331Z,2.65
2023-05-20T01:20:50.265Z,2.58
2023-05-20T01:23:17.340Z,2.88
2023-05-20T01:25:43.870Z,3.08
2023-05-20T01:28:10.700Z,3.15
2023-05-20T01:30:46.296Z,2.50
2023-05-20T01:33:18.325Z,2.65
2023-05-20T01:35:44.851Z,2.60
2023-05-20T01:38:12.620Z,2.63
2023-05-20T01:40:43.193Z,2.70
2023-05-20T01:43:10.318Z,2.75
2023-05-20T01:45:38.197Z,2.38
2023-05-20T01:48:05.297Z,2.50
2023-05-20T01:50:31.752Z,2.45
2023-05-20T01:52:58.322Z,2.83
2023-05-20T01:55:24.928Z,2.22
2023-05-20T01:57:51.507Z,2.97
2023-05-20T02:00:18.020Z,2.80
2023-05-20T02:02:44.696Z,2.75
2023-05-20T02:05:11.325Z,2.63
2023-05-20T02:07:37.964Z,2.83
2023-05-20T02:10:05.004Z,2.78
2023-05-20T02:12:31.503Z,2.90
2023-05-20T02:14:58.051Z,2.95
2023-05-20T02:17:24.633Z,2.90
2023-05-20T02:19:51.212Z,2.50
2023-05-20T02:22:17.692Z,2.78
2023-05-20T02:24:44.668Z,3.40
2023-05-20T02:27:11.237Z,3.22
2023-05-20T02:29:37.769Z,2.75
2023-05-20T02:32:04.656Z,2.90
2023-05-20T02:34:32.460Z,2.80
2023-05-20T02:36:59.009Z,2.30
2023-05-20T02:39:25.480Z,3.15
2023-05-20T02:41:51.985Z,2.63
2023-05-20T02:44:18.466Z,2.80
2023-05-20T02:46:45.031Z,2.75
2023-05-20T02:49:11.589Z,2.63
2023-05-20T02:51:38.095Z,2.60
2023-05-20T02:54:04.580Z,2.97
2023-05-20T02:56:32.535Z,2.50
2023-05-20T02:58:59.037Z,2.92
2023-05-20T03:01:25.669Z,2.58
2023-05-20T03:03:52.502Z,2.67
2023-05-20T03:06:19.118Z,2.85
2023-05-20T03:08:45.636Z,3.05
2023-05-20T03:11:12.065Z,4.28
2023-05-20T03:13:38.527Z,2.90
2023-05-20T03:16:05.492Z,2.67
2023-05-20T03:18:31.983Z,2.80
2023-05-20T03:20:58.431Z,2.92
2023-05-20T03:23:25.045Z,2.63
2023-05-20T03:25:51.680Z,3.58
2023-05-20T03:28:18.130Z,2.75
2023-05-20T03:30:44.650Z,3.22
2023-05-20T03:33:11.518Z,3.20
2023-05-20T03:35:38.031Z,3.30
2023-05-20T03:38:04.614Z,3.35
2023-05-20T03:40:31.136Z,2.60
2023-05-20T03:42:57.713Z,3.05
2023-05-20T03:45:24.191Z,4.10
2023-05-20T03:47:51.210Z,3.05
2023-05-20T03:50:17.923Z,3.22
2023-05-20T03:52:45.003Z,3.10
2023-05-20T03:55:11.752Z,3.30
2023-05-20T03:57:41.009Z,3.10
2023-05-20T04:00:11.873Z,3.35
2023-05-20T04:02:40.635Z,3.22
2023-05-20T04:05:09.006Z,3.05
2023-05-20T04:07:36.076Z,3.22
2023-05-20T04:10:03.616Z,2.85
2023-05-20T04:12:31.912Z,3.08
2023-05-20T04:15:02.352Z,3.50
2023-05-20T04:17:32.745Z,3.15
2023-05-20T04:20:00.029Z,3.38
2023-05-20T04:22:27.087Z,3.35
2023-05-20T04:24:53.689Z,3.00
2023-05-20T04:27:21.584Z,3.83
2023-05-20T04:29:48.232Z,3.45
2023-05-20T04:32:18.644Z,2.95
2023-05-20T04:34:45.803Z,3.42
2023-05-20T04:37:13.143Z,3.03
2023-05-20T04:39:40.185Z,3.45
2023-05-20T04:42:06.697Z,3.17
2023-05-20T04:44:33.537Z,2.90
2023-05-20T04:47:00.146Z,2.90
2023-05-20T04:49:27.002Z,3.47
2023-05-20T04:51:55.418Z,3.40
2023-05-20T04:54:22.091Z,3.00
2023-05-20T04:56:48.689Z,3.15
2023-05-20T04:59:15.238Z,2.83
2023-05-20T05:01:41.718Z,3.33
2023-05-20T05:04:08.265Z,3.25
2023-05-20T05:06:34.804Z,3.10
2023-05-20T05:09:01.297Z,3.40
2023-05-20T05:11:28.038Z,2.85
2023-05-20T05:13:55.255Z,3.22
2023-05-20T05:16:21.741Z,3.20
2023-05-20T05:18:48.294Z,3.05
2023-05-20T05:21:14.900Z,3.55
2023-05-20T05:23:42.633Z,3.13
2023-05-20T05:26:09.343Z,3.00
2023-05-20T05:28:35.897Z,2.90
2023-05-20T05:31:02.423Z,2.90
2023-05-20T05:33:29.224Z,3.08
2023-05-20T05:35:58.918Z,3.15
2023-05-20T05:38:25.790Z,3.20
2023-05-20T05:40:52.957Z,2.75
2023-05-20T05:43:19.482Z,3.63
2023-05-20T05:45:45.993Z,2.80
2023-05-20T05:48:12.587Z,3.00
2023-05-20T05:50:39.393Z,3.10
2023-05-20T05:53:05.878Z,2.78
2023-05-20T05:55:32.654Z,2.63
2023-05-20T05:57:59.376Z,3.10
2023-05-20T06:00:25.985Z,3.08
2023-05-20T06:02:52.983Z,3.33
2023-05-20T06:05:19.895Z,2.70
2023-05-20T06:07:46.645Z,2.92
2023-05-20T06:10:13.308Z,3.03
2023-05-20T06:12:39.756Z,3.28
2023-05-20T06:15:07.381Z,2.80
2023-05-20T06:17:33.860Z,2.70
2023-05-20T06:20:00.491Z,3.00
2023-05-20T06:22:26.983Z,2.35
2023-05-20T06:24:54.874Z,2.95
2023-05-20T06:27:21.378Z,2.60
2023-05-20T06:29:47.912Z,2.90
2023-05-20T06:32:14.523Z,2.60
2023-05-20T06:34:41.077Z,2.70
2023-05-20T06:37:07.653Z,2.47
2023-05-20T06:39:34.246Z,2.53
2023-05-20T06:42:03.725Z,2.60
2023-05-20T06:44:31.412Z,3.17
2023-05-20T06:46:57.930Z,2.70
2023-05-20T06:49:24.812Z,2.70
2023-05-20T06:51:51.369Z,2.85
2023-05-20T06:54:17.867Z,2.25
2023-05-20T06:56:44.574Z,2.17
2023-05-20T06:59:11.416Z,2.40
2023-05-20T07:01:38.018Z,2.58
2023-05-20T07:04:04.898Z,2.42
2023-05-20T07:06:31.521Z,3.25
2023-05-20T07:08:57.937Z,2.67
2023-05-20T07:11:24.414Z,2.13
2023-05-20T07:13:50.874Z,2.20
2023-05-20T07:16:17.430Z,2.13
2023-05-20T07:18:44.038Z,1.90
2023-05-20T07:21:10.557Z,2.30
2023-05-20T07:23:37.141Z,2.72
2023-05-20T07:26:03.708Z,2.88
2023-05-20T07:28:30.944Z,2.00
2023-05-20T07:30:58.013Z,2.03
2023-05-20T07:33:24.700Z,1.80
2023-05-20T07:35:51.990Z,2.05
2023-05-20T07:38:21.498Z,2.33
2023-05-20T07:40:47.968Z,2.45
2023-05-20T07:43:14.730Z,1.88
2023-05-20T07:45:41.290Z,1.90
2023-05-20T07:48:08.943Z,2.10
2023-05-20T07:50:36.566Z,1.80
2023-05-20T07:53:03.080Z,1.60
2023-05-20T07:55:29.618Z,1.58
2023-05-20T07:57:56.364Z,1.40
2023-05-20T08:00:23.100Z,1.50
2023-05-20T08:02:49.869Z,1.63
2023-05-20T08:05:16.765Z,1.67
2023-05-20T08:07:47.450Z,1.40
2023-05-20T08:10:14.188Z,1.40
2023-05-20T08:12:40.707Z,1.63
2023-05-20T08:15:07.937Z,1.83
2023-05-20T08:17:35.468Z,1.50
2023-05-20T08:20:02.292Z,1.40
2023-05-20T08:22:29.030Z,1.35
2023-05-20T08:24:55.509Z,1.52
2023-05-20T08:27:24.101Z,1.20
2023-05-20T08:29:54.739Z,1.10
2023-05-20T08:32:21.157Z,1.42
2023-05-20T08:34:49.268Z,1.27
2023-05-20T08:37:16.600Z,1.15
2023-05-20T08:39:51.178Z,0.90
2023-05-20T08:44:48.670Z,1.10
2023-05-20T08:47:15.316Z,0.90
2023-05-20T08:49:41.954Z,1.10
2023-05-20T08:52:11.478Z,1.00
2023-05-20T08:54:46.099Z,1.13
2023-05-20T08:59:46.863Z,1.30
2023-05-20T09:02:14.263Z,1.48
2023-05-20T09:04:41.121Z,0.90
2023-05-20T09:07:10.533Z,1.15
2023-05-20T09:09:36.986Z,1.08
2023-05-20T09:12:03.986Z,1.00
2023-05-20T09:14:31.465Z,0.80
2023-05-20T09:16:58.093Z,1.05
2023-05-20T09:19:25.522Z,1.20
2023-05-20T09:21:54.257Z,1.30
2023-05-20T09:26:52.632Z,1.30
2023-05-20T09:29:21.645Z,1.13
2023-05-20T09:31:49.938Z,1.10
2023-05-20T09:34:17.709Z,1.08
2023-05-20T09:36:45.287Z,1.08
2023-05-20T09:39:16.412Z,1.30
2023-05-20T09:41:52.328Z,1.10
2023-05-20T09:44:20.379Z,1.30
2023-05-20T09:46:49.646Z,1.13
2023-05-20T09:49:17.389Z,0.98
2023-05-20T09:51:44.398Z,1.20
2023-05-20T09:54:12.895Z,1.20
2023-05-20T09:56:41.084Z,1.42
2023-05-20T09:59:09.061Z,1.00
2023-05-20T10:01:35.572Z,1.20
2023-05-20T10:04:05.758Z,1.15
2023-05-20T10:06:38.568Z,1.60
2023-05-20T10:09:32.457Z,1.50
2023-05-20T10:12:15.029Z,1.13
2023-05-20T10:15:09.086Z,1.20
2023-05-20T10:18:04.708Z,1.27
2023-05-20T10:20:31.810Z,1.35
2023-05-20T10:22:58.735Z,1.60
2023-05-20T10:25:27.469Z,1.13
2023-05-20T10:28:07.753Z,1.13
2023-05-20T10:33:06.376Z,1.30
2023-05-20T10:35:33.061Z,1.27
2023-05-20T10:38:11.365Z,1.13
2023-05-20T10:40:38.133Z,1.08
2023-05-20T10:43:12.096Z,1.20
2023-05-20T10:45:53.407Z,1.25
2023-05-20T10:48:32.889Z,1.15
2023-05-20T10:51:04.734Z,1.23
2023-05-20T10:53:40.421Z,1.30
2023-05-20T10:56:16.483Z,1.13
2023-05-20T10:58:44.249Z,1.30
2023-05-20T11:01:11.767Z,1.00
2023-05-20T11:03:40.216Z,1.20
2023-05-20T11:06:15.394Z,1.50
2023-05-20T11:08:43.062Z,1.30
2023-05-20T11:11:11.270Z,1.30
2023-05-20T11:13:37.870Z,1.23
2023-05-20T11:16:05.021Z,1.52
2023-05-20T11:18:32.081Z,1.48
2023-05-20T11:20:59.577Z,1.38
2023-05-20T11:23:27.902Z,1.63
2023-05-20T11:25:56.500Z,1.50
2023-05-20T11:30:53.549Z,1.13
2023-05-20T11:33:20.371Z,1.20
2023-05-20T11:35:49.439Z,1.20
2023-05-20T11:38:16.801Z,1.20
2023-05-20T11:40:51.206Z,1.65
2023-05-20T11:43:19.087Z,1.30
2023-05-20T11:45:56.729Z,1.38
2023-05-20T11:48:24.362Z,1.40
2023-05-20T11:50:52.872Z,1.55
2023-05-20T11:53:21.601Z,1.30
2023-05-20T11:55:52.356Z,1.50
2023-05-20T11:58:20.407Z,1.20
2023-05-20T12:00:51.696Z,1.48
2023-05-20T12:03:24.339Z,1.45
2023-05-20T12:05:51.297Z,1.48
2023-05-20T12:08:17.953Z,1.35
2023-05-20T12:10:45.224Z,1.13
2023-05-20T12:13:13.472Z,1.25
2023-05-20T12:15:40.865Z,1.30
2023-05-20T12:18:07.879Z,1.33
2023-05-20T12:20:34.784Z,1.27
2023-05-20T12:23:01.621Z,1.38
2023-05-20T12:25:28.649Z,1.38
2023-05-20T12:27:56.160Z,1.02
2023-05-20T12:30:23.728Z,1.15
2023-05-20T12:32:52.032Z,1.30
2023-05-20T12:35:26.495Z,1.17
2023-05-20T12:40:19.598Z,1.00
2023-05-20T12:42:46.008Z,1.10
2023-05-20T12:45:13.381Z,1.10
2023-05-20T12:47:39.904Z,1.25
2023-05-20T12:50:07.043Z,1.27
2023-05-20T12:52:33.585Z,1.15
2023-05-20T12:55:00.266Z,1.40
2023-05-20T12:57:27.047Z,1.10
2023-05-20T12:59:53.527Z,1.20
2023-05-20T13:02:20.577Z,1.10
2023-05-20T13:04:47.128Z,1.08
2023-05-20T13:07:13.547Z,1.10
2023-05-20T13:09:40.144Z,1.40
2023-05-20T13:12:07.007Z,1.30
2023-05-20T13:14:33.498Z,1.50
2023-05-20T13:17:00.334Z,1.20
2023-05-20T13:19:26.974Z,1.25
2023-05-20T13:21:56.284Z,1.30
2023-05-20T13:24:22.757Z,1.42
2023-05-20T13:26:49.231Z,1.50
2023-05-20T13:29:16.169Z,1.08
2023-05-20T13:31:42.791Z,1.27
2023-05-20T13:34:09.797Z,1.30
2023-05-20T13:36:36.322Z,1.35
2023-05-20T13:39:02.728Z,0.95
2023-05-20T13:41:30.229Z,1.23
2023-05-20T13:43:56.781Z,1.10
2023-05-20T13:46:23.427Z,1.02
2023-05-20T13:48:50.082Z,1.02
2023-05-20T13:51:16.613Z,1.08
2023-05-20T13:53:43.131Z,1.20
2023-05-20T13:56:09.837Z,1.33
2023-05-20T13:58:37.101Z,1.13
2023-05-20T14:01:04.971Z,1.50
2023-05-20T14:03:33.299Z,1.10
2023-05-20T14:06:00.983Z,1.20
2023-05-20T14:08:27.956Z,1.05
2023-05-20T14:10:55.554Z,1.15
2023-05-20T14:13:22.644Z,1.50
2023-05-20T14:15:54.825Z,1.40
2023-05-20T14:18:21.659Z,1.27
2023-05-20T14:20:48.190Z,1.45
2023-05-20T14:23:14.907Z,1.27
2023-05-20T14:25:41.495Z,1.00
2023-05-20T14:28:07.926Z,1.05
2023-05-20T14:30:34.817Z,1.20
2023-05-20T14:33:01.615Z,1.05
2023-05-20T14:35:28.054Z,1.08
2023-05-20T14:37:54.591Z,0.90
2023-05-20T14:40:21.188Z,1.25
2023-05-20T14:42:47.625Z,0.85
2023-05-20T14:45:14.058Z,1.05
2023-05-20T14:47:40.619Z,1.00
2023-05-20T14:50:07.824Z,1.15
2023-05-20T14:52:34.394Z,1.00
2023-05-20T14:55:00.944Z,1.00
2023-05-20T14:57:27.496Z,1.10
2023-05-20T14:59:54.270Z,1.00
2023-05-20T15:02:23.647Z,1.35
2023-05-20T15:04:50.344Z,1.40
2023-05-20T15:07:16.758Z,1.10
2023-05-20T15:09:44.826Z,1.00
2023-05-20T15:12:11.551Z,1.15
2023-05-20T15:14:40.440Z,0.98
2023-05-20T15:17:07.676Z,1.10
2023-05-20T15:19:34.505Z,1.50
2023-05-20T15:22:01.213Z,1.00
2023-05-20T15:24:27.647Z,1.25
2023-05-20T15:26:55.030Z,1.30
2023-05-20T15:29:22.213Z,1.15
2023-05-20T15:31:48.815Z,1.00
2023-05-20T15:34:15.330Z,1.13
2023-05-20T15:36:41.905Z,1.10
2023-05-20T15:39:08.471Z,1.33
2023-05-20T15:41:34.919Z,0.95
2023-05-20T15:44:01.381Z,1.10
2023-05-20T15:46:28.115Z,1.38
2023-05-20T15:48:56.381Z,1.50
2023-05-20T15:51:23.209Z,1.15
2023-05-20T15:53:49.696Z,1.38
2023-05-20T15:56:16.655Z,1.50
2023-05-20T15:58:46.630Z,1.13
2023-05-20T16:01:13.093Z,1.60
2023-05-20T16:03:40.293Z,1.05
2023-05-20T16:06:07.392Z,0.90
2023-05-20T16:08:36.203Z,1.25
2023-05-20T16:11:02.888Z,1.35
2023-05-20T16:13:29.467Z,1.20
2023-05-20T16:15:57.968Z,1.10
2023-05-20T16:18:28.487Z,1.27
2023-05-20T16:20:55.132Z,1.83
2023-05-20T16:23:21.753Z,1.42
2023-05-20T16:25:48.144Z,1.40
2023-05-20T16:28:14.639Z,1.25
2023-05-20T16:30:41.197Z,1.30
2023-05-20T16:33:08.033Z,1.48
2023-05-20T16:35:34.569Z,1.30
2023-05-20T16:38:01.375Z,1.10
2023-05-20T16:40:27.846Z,1.10
2023-05-20T16:42:54.320Z,1.15
2023-05-20T16:45:20.792Z,1.90
2023-05-20T16:47:47.309Z,1.48
2023-05-20T16:50:13.761Z,1.23
2023-05-20T16:52:40.325Z,1.10
2023-05-20T16:55:08.400Z,1.30
2023-05-20T16:57:35.914Z,1.13
2023-05-20T17:00:07.601Z,1.35
2023-05-20T17:02:34.147Z,1.10
2023-05-20T17:05:00.639Z,2.53
2023-05-20T17:07:27.092Z,2.72
2023-05-20T17:09:53.565Z,2.95
2023-05-20T17:12:19.964Z,3.63
2023-05-20T17:14:46.544Z,1.65
2023-05-20T17:17:17.214Z,2.05
2023-05-20T17:19:43.875Z,1.40
2023-05-20T17:22:10.468Z,1.42
2023-05-20T17:24:36.951Z,1.30
2023-05-20T17:27:06.117Z,1.40
2023-05-20T17:29:32.645Z,1.33
2023-05-20T17:31:59.171Z,1.35
2023-05-20T17:34:25.624Z,1.30
2023-05-20T17:36:52.435Z,2.17
2023-05-20T17:39:18.860Z,1.30
2023-05-20T17:41:45.736Z,1.45
2023-05-20T17:44:12.211Z,1.38
2023-05-20T17:46:38.894Z,1.73
2023-05-20T17:49:05.535Z,1.83
2023-05-20T17:51:32.721Z,2.60
2023-05-20T17:53:59.295Z,2.17
2023-05-20T17:56:26.553Z,2.63
2023-05-20T17:58:54.252Z,3.00
2023-05-20T18:01:22.682Z,2.20
2023-05-20T18:03:49.360Z,1.77
2023-05-20T18:06:17.925Z,1.85
2023-05-20T18:08:47.023Z,1.70
2023-05-20T18:11:13.427Z,1.65
2023-05-20T18:13:40.078Z,1.80
2023-05-20T18:16:06.786Z,1.58
2023-05-20T18:18:33.436Z,1.50
2023-05-20T18:20:59.852Z,1.48
2023-05-20T18:23:26.408Z,1.55
2023-05-20T18:25:52.906Z,2.15
2023-05-20T18:28:19.295Z,1.90
2023-05-20T18:30:45.766Z,1.27
2023-05-20T18:33:12.706Z,1.33
2023-05-20T18:35:39.390Z,1.60
2023-05-20T18:38:05.952Z,1.45
2023-05-20T18:40:32.575Z,1.63
2023-05-20T18:42:59.133Z,1.50
2023-05-20T18:45:25.881Z,1.77
2023-05-20T18:47:57.567Z,1.58
2023-05-20T18:50:24.626Z,1.55
2023-05-20T18:52:51.117Z,1.25
2023-05-20T18:55:24.493Z,1.52
2023-05-20T18:57:52.012Z,1.90
2023-05-20T19:00:18.617Z,1.85
2023-05-20T19:02:45.468Z,1.50
2023-05-20T19:05:12.526Z,1.40
2023-05-20T19:07:42.229Z,1.40
2023-05-20T19:10:09.299Z,1.48
2023-05-20T19:12:35.803Z,1.52
2023-05-20T19:15:02.513Z,1.75
2023-05-20T19:17:29.328Z,1.63
2023-05-20T19:19:55.786Z,1.60
2023-05-20T19:22:22.200Z,1.42
2023-05-20T19:24:48.681Z,2.42
2023-05-20T19:27:15.354Z,1.65
2023-05-20T19:29:41.892Z,2.00
2023-05-20T19:32:08.530Z,1.40
2023-05-20T19:34:35.015Z,2.10
2023-05-20T19:37:01.574Z,1.92
2023-05-20T19:39:28.771Z,2.10
2023-05-20T19:41:55.431Z,2.30
2023-05-20T19:44:23.374Z,1.77
2023-05-20T19:46:49.945Z,2.08
2023-05-20T19:49:16.455Z,1.73
2023-05-20T19:51:42.975Z,1.63
2023-05-20T19:54:10.250Z,1.50
2023-05-20T19:56:37.051Z,1.83
2023-05-20T19:59:03.915Z,1.80
2023-05-20T20:01:32.664Z,1.65
2023-05-20T20:03:59.139Z,1.52
2023-05-20T20:06:25.942Z,1.73
2023-05-20T20:08:52.483Z,2.25
2023-05-20T20:11:18.952Z,1.98
2023-05-20T20:13:45.797Z,2.03
2023-05-20T20:16:13.469Z,2.05
2023-05-20T20:18:39.930Z,1.50
2023-05-20T20:21:06.381Z,2.03
2023-05-20T20:23:32.938Z,1.58
2023-05-20T20:25:59.519Z,1.70
2023-05-20T20:28:26.250Z,2.03
2023-05-20T20:30:53.011Z,1.90
2023-05-20T20:33:19.536Z,1.73
2023-05-20T20:35:46.860Z,1.50
2023-05-20T20:38:13.460Z,1.88
2023-05-20T20:40:42.297Z,2.28
2023-05-20T20:43:10.971Z,1.85
2023-05-20T20:45:37.544Z,1.65
2023-05-20T20:48:08.620Z,1.90
2023-05-20T20:50:35.708Z,1.73
2023-05-20T20:53:02.490Z,1.90
2023-05-20T20:55:31.900Z,1.65
2023-05-20T20:58:02.780Z,1.83
2023-05-20T21:00:29.574Z,1.77
2023-05-20T21:02:56.239Z,1.70
2023-05-20T21:05:26.496Z,1.73
2023-05-20T21:07:58.338Z,1.63
2023-05-20T21:10:29.179Z,1.63
2023-05-20T21:12:56.998Z,1.70
2023-05-20T21:15:24.625Z,1.90
2023-05-20T21:17:51.846Z,2.05
2023-05-20T21:20:21.302Z,2.13
2023-05-20T21:22:48.506Z,1.80
2023-05-20T21:25:15.176Z,1.85
2023-05-20T21:27:42.338Z,2.00
2023-05-20T21:30:10.718Z,1.30
2023-05-20T21:32:39.338Z,1.92
2023-05-20T21:35:06.321Z,1.70
2023-05-20T21:37:32.801Z,1.67
2023-05-20T21:39:59.212Z,1.70
2023-05-20T21:42:25.952Z,1.77
2023-05-20T21:44:52.445Z,2.13
2023-05-20T21:47:20.544Z,1.75
2023-05-20T21:49:48.132Z,1.63
2023-05-20T21:52:14.893Z,1.75
2023-05-20T21:54:41.812Z,1.73
2023-05-20T21:57:08.292Z,1.80
2023-05-20T21:59:34.721Z,1.83
2023-05-20T22:02:01.377Z,1.83
2023-05-20T22:04:28.623Z,1.60
2023-05-20T22:06:56.236Z,1.55
2023-05-20T22:09:22.755Z,1.80
2023-05-20T22:11:49.592Z,1.80
2023-05-20T22:14:16.791Z,2.13
2023-05-20T22:16:46.497Z,1.50
2023-05-20T22:19:16.961Z,1.77
2023-05-20T22:21:50.308Z,1.75
2023-05-20T22:24:17.830Z,2.10
2023-05-20T22:26:44.555Z,1.92
2023-05-20T22:29:11.031Z,2.17
2023-05-20T22:31:38.160Z,1.98
2023-05-20T22:34:05.443Z,2.10
2023-05-20T22:36:34.254Z,2.00
2023-05-20T22:39:04.693Z,1.88
2023-05-20T22:41:31.431Z,2.40
2023-05-20T22:43:58.204Z,2.05
2023-05-20T22:46:25.480Z,2.10
2023-05-20T22:48:55.252Z,2.03
2023-05-20T22:51:22.579Z,1.90
2023-05-20T22:53:49.185Z,1.70
2023-05-20T22:56:16.083Z,1.73
2023-05-20T22:58:43.123Z,2.10
2023-05-20T23:01:10.483Z,1.98
2023-05-20T23:03:38.014Z,2.25
2023-05-20T23:06:04.720Z,1.85
2023-05-20T23:08:31.276Z,2.05
2023-05-20T23:10:57.727Z,2.00
2023-05-20T23:13:24.209Z,1.88
2023-05-20T23:15:50.803Z,1.95
2023-05-20T23:18:18.246Z,2.03
2023-05-20T23:20:44.688Z,1.95
2023-05-20T23:23:11.805Z,2.13
2023-05-20T23:25:38.515Z,1.80
2023-05-20T23:28:05.876Z,1.70
2023-05-20T23:30:32.316Z,2.05
2023-05-20T23:32:58.846Z,2.17
2023-05-20T23:35:25.690Z,2.38
2023-05-20T23:37:52.440Z,2.10
2023-05-20T23:40:19.230Z,2.13
2023-05-20T23:42:45.895Z,1.95
2023-05-20T23:45:12.979Z,2.55
2023-05-20T23:47:43.582Z,2.13
2023-05-20T23:50:10.653Z,2.00
2023-05-20T23:52:37.100Z,2.03
2023-05-20T23:55:03.719Z,2.00
2023-05-20T23:57:30.335Z,2.30
2023-05-20T23:59:56.841Z,1.98
